sensor_id;sensor_type;location;lat;lon;timestamp;P1;durP1;ratioP1;P2;durP2;ratioP2
74415;SDS011;62850;42.428;25.618;2022-09-01T00:01:28;14.48;;;6.00;;
74415;SDS011;62850;42.428;25.618;2022-09-01T00:03:57;9.98;;;5.97;;
74415;SDS011;62850;42.428;25.618;2022-09-01T00:06:27;11.77;;;6.82;;
74415;SDS011;62850;42.428;25.618;2022-09-01T00:08:55;10.90;;;6.07;;
74415;SDS011;62850;42.428;25.618;2022-09-01T00:11:23;12.10;;;6.20;;
74415;SDS011;62850;42.428;25.618;2022-09-01T00:13:50;12.52;;;6.53;;
74415;SDS011;62850;42.428;25.618;2022-09-01T00:16:16;14.35;;;6.45;;
74415;SDS011;62850;42.428;25.618;2022-09-01T00:18:43;15.63;;;7.05;;
74415;SDS011;62850;42.428;25.618;2022-09-01T00:21:16;13.35;;;7.20;;
74415;SDS011;62850;42.428;25.618;2022-09-01T00:23:45;10.25;;;6.60;;
74415;SDS011;62850;42.428;25.618;2022-09-01T00:26:10;9.98;;;5.95;;
74415;SDS011;62850;42.428;25.618;2022-09-01T00:28:37;11.18;;;6.90;;
74415;SDS011;62850;42.428;25.618;2022-09-01T00:31:03;10.73;;;6.25;;
74415;SDS011;62850;42.428;25.618;2022-09-01T00:33:31;11.75;;;6.57;;
74415;SDS011;62850;42.428;25.618;2022-09-01T00:35:57;14.90;;;6.90;;
74415;SDS011;62850;42.428;25.618;2022-09-01T00:38:23;16.00;;;6.40;;
74415;SDS011;62850;42.428;25.618;2022-09-01T00:40:48;10.43;;;6.18;;
74415;SDS011;62850;42.428;25.618;2022-09-01T00:43:49;15.43;;;6.75;;
74415;SDS011;62850;42.428;25.618;2022-09-01T00:46:16;13.50;;;7.22;;
74415;SDS011;62850;42.428;25.618;2022-09-01T00:48:43;11.27;;;6.95;;
74415;SDS011;62850;42.428;25.618;2022-09-01T00:51:09;14.75;;;6.85;;
74415;SDS011;62850;42.428;25.618;2022-09-01T00:53:36;13.45;;;6.35;;
74415;SDS011;62850;42.428;25.618;2022-09-01T00:56:05;10.32;;;6.95;;
74415;SDS011;62850;42.428;25.618;2022-09-01T00:58:31;12.75;;;6.53;;
74415;SDS011;62850;42.428;25.618;2022-09-01T01:01:00;12.38;;;5.82;;
74415;SDS011;62850;42.428;25.618;2022-09-01T01:03:26;11.25;;;6.35;;
74415;SDS011;62850;42.428;25.618;2022-09-01T01:05:55;9.95;;;6.20;;
74415;SDS011;62850;42.428;25.618;2022-09-01T01:08:27;10.27;;;6.22;;
74415;SDS011;62850;42.428;25.618;2022-09-01T01:11:02;10.45;;;6.03;;
74415;SDS011;62850;42.428;25.618;2022-09-01T01:13:29;12.82;;;6.28;;
74415;SDS011;62850;42.428;25.618;2022-09-01T01:16:00;8.63;;;5.45;;
74415;SDS011;62850;42.428;25.618;2022-09-01T01:18:27;13.57;;;5.97;;
74415;SDS011;62850;42.428;25.618;2022-09-01T01:21:03;11.07;;;5.68;;
74415;SDS011;62850;42.428;25.618;2022-09-01T01:24:05;9.90;;;5.43;;
74415;SDS011;62850;42.428;25.618;2022-09-01T01:26:52;14.52;;;5.47;;
74415;SDS011;62850;42.428;25.618;2022-09-01T01:29:22;12.55;;;5.90;;
74415;SDS011;62850;42.428;25.618;2022-09-01T01:31:48;9.93;;;4.80;;
74415;SDS011;62850;42.428;25.618;2022-09-01T01:34:17;10.57;;;5.00;;
74415;SDS011;62850;42.428;25.618;2022-09-01T01:36:43;9.65;;;4.72;;
74415;SDS011;62850;42.428;25.618;2022-09-01T01:39:14;9.50;;;4.80;;
74415;SDS011;62850;42.428;25.618;2022-09-01T01:41:42;8.43;;;4.80;;
74415;SDS011;62850;42.428;25.618;2022-09-01T01:44:13;9.77;;;4.97;;
74415;SDS011;62850;42.428;25.618;2022-09-01T01:46:41;9.38;;;5.40;;
74415;SDS011;62850;42.428;25.618;2022-09-01T01:49:09;10.25;;;4.75;;
74415;SDS011;62850;42.428;25.618;2022-09-01T01:51:37;10.30;;;4.93;;
74415;SDS011;62850;42.428;25.618;2022-09-01T01:54:03;7.25;;;4.65;;
74415;SDS011;62850;42.428;25.618;2022-09-01T01:56:31;9.27;;;4.63;;
74415;SDS011;62850;42.428;25.618;2022-09-01T01:58:58;9.43;;;4.15;;
74415;SDS011;62850;42.428;25.618;2022-09-01T02:01:26;10.93;;;4.93;;
74415;SDS011;62850;42.428;25.618;2022-09-01T02:03:54;11.15;;;4.63;;
74415;SDS011;62850;42.428;25.618;2022-09-01T02:06:21;9.15;;;4.55;;
74415;SDS011;62850;42.428;25.618;2022-09-01T02:08:52;9.38;;;4.50;;
74415;SDS011;62850;42.428;25.618;2022-09-01T02:11:22;8.55;;;4.57;;
74415;SDS011;62850;42.428;25.618;2022-09-01T02:13:50;12.93;;;4.65;;
74415;SDS011;62850;42.428;25.618;2022-09-01T02:16:20;9.05;;;4.63;;
74415;SDS011;62850;42.428;25.618;2022-09-01T02:18:47;10.90;;;4.43;;
74415;SDS011;62850;42.428;25.618;2022-09-01T02:21:15;10.15;;;4.80;;
74415;SDS011;62850;42.428;25.618;2022-09-01T02:26:24;9.18;;;5.75;;
74415;SDS011;62850;42.428;25.618;2022-09-01T02:28:54;9.30;;;5.15;;
74415;SDS011;62850;42.428;25.618;2022-09-01T02:31:20;9.68;;;4.90;;
74415;SDS011;62850;42.428;25.618;2022-09-01T02:33:47;12.50;;;5.15;;
74415;SDS011;62850;42.428;25.618;2022-09-01T02:36:14;11.45;;;4.90;;
74415;SDS011;62850;42.428;25.618;2022-09-01T02:38:42;10.43;;;5.50;;
74415;SDS011;62850;42.428;25.618;2022-09-01T02:41:10;12.95;;;5.13;;
74415;SDS011;62850;42.428;25.618;2022-09-01T02:43:38;8.25;;;5.20;;
74415;SDS011;62850;42.428;25.618;2022-09-01T02:46:07;12.82;;;5.80;;
74415;SDS011;62850;42.428;25.618;2022-09-01T02:48:35;11.10;;;5.22;;
74415;SDS011;62850;42.428;25.618;2022-09-01T02:51:06;10.82;;;5.57;;
74415;SDS011;62850;42.428;25.618;2022-09-01T02:53:34;12.38;;;5.10;;
74415;SDS011;62850;42.428;25.618;2022-09-01T02:56:02;12.23;;;5.72;;
74415;SDS011;62850;42.428;25.618;2022-09-01T02:58:33;11.15;;;5.50;;
74415;SDS011;62850;42.428;25.618;2022-09-01T03:01:09;10.70;;;5.57;;
74415;SDS011;62850;42.428;25.618;2022-09-01T03:03:49;9.30;;;5.13;;
74415;SDS011;62850;42.428;25.618;2022-09-01T03:06:17;7.82;;;4.90;;
74415;SDS011;62850;42.428;25.618;2022-09-01T03:08:48;11.63;;;5.15;;
74415;SDS011;62850;42.428;25.618;2022-09-01T03:11:19;10.32;;;5.63;;
74415;SDS011;62850;42.428;25.618;2022-09-01T03:13:48;11.02;;;5.03;;
74415;SDS011;62850;42.428;25.618;2022-09-01T03:16:14;9.95;;;4.85;;
74415;SDS011;62850;42.428;25.618;2022-09-01T03:18:40;8.45;;;4.70;;
74415;SDS011;62850;42.428;25.618;2022-09-01T03:21:07;9.63;;;5.00;;
74415;SDS011;62850;42.428;25.618;2022-09-01T03:23:34;11.77;;;5.32;;
74415;SDS011;62850;42.428;25.618;2022-09-01T03:26:00;10.40;;;5.20;;
74415;SDS011;62850;42.428;25.618;2022-09-01T03:28:26;14.15;;;5.45;;
74415;SDS011;62850;42.428;25.618;2022-09-01T03:30:53;10.32;;;5.22;;
74415;SDS011;62850;42.428;25.618;2022-09-01T03:33:20;11.63;;;5.60;;
74415;SDS011;62850;42.428;25.618;2022-09-01T03:35:48;10.90;;;5.35;;
74415;SDS011;62850;42.428;25.618;2022-09-01T03:38:14;14.45;;;6.85;;
74415;SDS011;62850;42.428;25.618;2022-09-01T03:40:52;12.15;;;6.40;;
74415;SDS011;62850;42.428;25.618;2022-09-01T03:43:23;12.13;;;5.72;;
74415;SDS011;62850;42.428;25.618;2022-09-01T03:45:51;12.60;;;5.75;;
74415;SDS011;62850;42.428;25.618;2022-09-01T03:48:19;10.23;;;6.53;;
74415;SDS011;62850;42.428;25.618;2022-09-01T03:50:45;11.18;;;5.85;;
74415;SDS011;62850;42.428;25.618;2022-09-01T03:53:19;13.82;;;6.40;;
74415;SDS011;62850;42.428;25.618;2022-09-01T03:55:47;11.30;;;6.13;;
74415;SDS011;62850;42.428;25.618;2022-09-01T03:58:14;10.52;;;6.35;;
74415;SDS011;62850;42.428;25.618;2022-09-01T04:00:44;10.40;;;6.47;;
74415;SDS011;62850;42.428;25.618;2022-09-01T04:03:12;10.98;;;6.03;;
74415;SDS011;62850;42.428;25.618;2022-09-01T04:05:41;9.25;;;5.60;;
74415;SDS011;62850;42.428;25.618;2022-09-01T04:08:09;10.68;;;5.75;;
74415;SDS011;62850;42.428;25.618;2022-09-01T04:10:46;9.40;;;5.30;;
74415;SDS011;62850;42.428;25.618;2022-09-01T04:13:22;12.27;;;5.97;;
74415;SDS011;62850;42.428;25.618;2022-09-01T04:15:58;9.38;;;5.35;;
74415;SDS011;62850;42.428;25.618;2022-09-01T04:18:24;13.20;;;6.50;;
74415;SDS011;62850;42.428;25.618;2022-09-01T04:23:24;12.27;;;6.07;;
74415;SDS011;62850;42.428;25.618;2022-09-01T04:26:04;11.82;;;6.53;;
74415;SDS011;62850;42.428;25.618;2022-09-01T04:28:52;16.13;;;6.85;;
74415;SDS011;62850;42.428;25.618;2022-09-01T04:31:18;10.63;;;6.72;;
74415;SDS011;62850;42.428;25.618;2022-09-01T04:33:46;16.00;;;7.03;;
74415;SDS011;62850;42.428;25.618;2022-09-01T04:36:21;20.25;;;7.68;;
74415;SDS011;62850;42.428;25.618;2022-09-01T04:38:55;15.32;;;7.88;;
74415;SDS011;62850;42.428;25.618;2022-09-01T04:41:24;15.75;;;8.18;;
74415;SDS011;62850;42.428;25.618;2022-09-01T04:43:52;20.15;;;8.50;;
74415;SDS011;62850;42.428;25.618;2022-09-01T04:46:22;15.20;;;8.10;;
74415;SDS011;62850;42.428;25.618;2022-09-01T04:48:53;18.88;;;8.93;;
74415;SDS011;62850;42.428;25.618;2022-09-01T04:51:19;18.33;;;8.30;;
74415;SDS011;62850;42.428;25.618;2022-09-01T04:53:46;17.42;;;7.72;;
74415;SDS011;62850;42.428;25.618;2022-09-01T04:56:16;16.95;;;8.18;;
74415;SDS011;62850;42.428;25.618;2022-09-01T04:58:46;18.80;;;9.18;;
74415;SDS011;62850;42.428;25.618;2022-09-01T05:01:22;14.75;;;8.10;;
74415;SDS011;62850;42.428;25.618;2022-09-01T05:03:49;19.45;;;8.35;;
74415;SDS011;62850;42.428;25.618;2022-09-01T05:06:23;16.20;;;8.85;;
74415;SDS011;62850;42.428;25.618;2022-09-01T05:08:49;16.67;;;8.57;;
74415;SDS011;62850;42.428;25.618;2022-09-01T05:11:16;20.92;;;8.50;;
74415;SDS011;62850;42.428;25.618;2022-09-01T05:13:45;18.77;;;8.90;;
74415;SDS011;62850;42.428;25.618;2022-09-01T05:16:12;20.75;;;9.18;;
74415;SDS011;62850;42.428;25.618;2022-09-01T05:18:41;17.83;;;8.55;;
74415;SDS011;62850;42.428;25.618;2022-09-01T05:21:12;24.88;;;9.43;;
74415;SDS011;62850;42.428;25.618;2022-09-01T05:23:41;24.42;;;9.52;;
74415;SDS011;62850;42.428;25.618;2022-09-01T05:26:14;22.92;;;9.43;;
74415;SDS011;62850;42.428;25.618;2022-09-01T05:28:46;20.27;;;9.45;;
74415;SDS011;62850;42.428;25.618;2022-09-01T05:31:13;22.38;;;10.13;;
74415;SDS011;62850;42.428;25.618;2022-09-01T05:33:43;20.35;;;8.95;;
74415;SDS011;62850;42.428;25.618;2022-09-01T05:36:13;22.08;;;10.40;;
74415;SDS011;62850;42.428;25.618;2022-09-01T05:38:40;25.35;;;9.27;;
74415;SDS011;62850;42.428;25.618;2022-09-01T05:41:06;21.98;;;10.48;;
74415;SDS011;62850;42.428;25.618;2022-09-01T05:43:35;20.85;;;9.13;;
74415;SDS011;62850;42.428;25.618;2022-09-01T05:46:05;20.50;;;8.93;;
74415;SDS011;62850;42.428;25.618;2022-09-01T05:48:32;25.65;;;9.07;;
74415;SDS011;62850;42.428;25.618;2022-09-01T05:51:07;22.83;;;10.00;;
74415;SDS011;62850;42.428;25.618;2022-09-01T05:53:33;21.17;;;9.63;;
74415;SDS011;62850;42.428;25.618;2022-09-01T05:56:00;15.25;;;9.00;;
74415;SDS011;62850;42.428;25.618;2022-09-01T05:58:32;19.15;;;8.35;;
74415;SDS011;62850;42.428;25.618;2022-09-01T06:01:02;14.70;;;6.53;;
74415;SDS011;62850;42.428;25.618;2022-09-01T06:03:29;14.63;;;6.82;;
74415;SDS011;62850;42.428;25.618;2022-09-01T06:06:00;14.45;;;6.05;;
74415;SDS011;62850;42.428;25.618;2022-09-01T06:08:29;14.27;;;6.30;;
74415;SDS011;62850;42.428;25.618;2022-09-01T06:10:55;11.43;;;6.25;;
74415;SDS011;62850;42.428;25.618;2022-09-01T06:13:20;13.88;;;6.25;;
74415;SDS011;62850;42.428;25.618;2022-09-01T06:15:47;11.98;;;5.93;;
74415;SDS011;62850;42.428;25.618;2022-09-01T06:18:13;10.52;;;5.95;;
74415;SDS011;62850;42.428;25.618;2022-09-01T06:20:42;12.25;;;6.10;;
74415;SDS011;62850;42.428;25.618;2022-09-01T06:23:09;12.73;;;5.70;;
74415;SDS011;62850;42.428;25.618;2022-09-01T06:25:39;13.73;;;5.80;;
74415;SDS011;62850;42.428;25.618;2022-09-01T06:28:11;15.73;;;6.63;;
74415;SDS011;62850;42.428;25.618;2022-09-01T06:30:38;13.20;;;5.88;;
74415;SDS011;62850;42.428;25.618;2022-09-01T06:33:06;13.48;;;5.88;;
74415;SDS011;62850;42.428;25.618;2022-09-01T06:35:37;12.25;;;5.43;;
74415;SDS011;62850;42.428;25.618;2022-09-01T06:38:06;11.55;;;6.47;;
74415;SDS011;62850;42.428;25.618;2022-09-01T06:40:33;16.35;;;6.68;;
74415;SDS011;62850;42.428;25.618;2022-09-01T06:43:00;16.60;;;7.45;;
74415;SDS011;62850;42.428;25.618;2022-09-01T06:45:32;12.77;;;6.15;;
74415;SDS011;62850;42.428;25.618;2022-09-01T06:48:06;25.80;;;11.85;;
74415;SDS011;62850;42.428;25.618;2022-09-01T06:50:32;28.88;;;12.13;;
74415;SDS011;62850;42.428;25.618;2022-09-01T06:52:58;40.58;;;16.05;;
74415;SDS011;62850;42.428;25.618;2022-09-01T06:55:37;178.90;;;65.28;;
74415;SDS011;62850;42.428;25.618;2022-09-01T06:58:07;125.57;;;41.50;;
74415;SDS011;62850;42.428;25.618;2022-09-01T07:00:37;82.18;;;30.70;;
74415;SDS011;62850;42.428;25.618;2022-09-01T07:03:11;35.92;;;13.25;;
74415;SDS011;62850;42.428;25.618;2022-09-01T07:05:44;28.38;;;10.73;;
74415;SDS011;62850;42.428;25.618;2022-09-01T07:08:12;27.98;;;10.35;;
74415;SDS011;62850;42.428;25.618;2022-09-01T07:10:43;26.15;;;10.48;;
74415;SDS011;62850;42.428;25.618;2022-09-01T07:13:11;22.30;;;9.55;;
74415;SDS011;62850;42.428;25.618;2022-09-01T07:15:43;24.70;;;9.48;;
74415;SDS011;62850;42.428;25.618;2022-09-01T07:18:09;22.90;;;9.70;;
74415;SDS011;62850;42.428;25.618;2022-09-01T07:20:39;19.35;;;8.57;;
74415;SDS011;62850;42.428;25.618;2022-09-01T07:23:06;25.92;;;9.70;;
74415;SDS011;62850;42.428;25.618;2022-09-01T07:25:33;14.30;;;7.53;;
74415;SDS011;62850;42.428;25.618;2022-09-01T07:28:03;15.43;;;7.38;;
74415;SDS011;62850;42.428;25.618;2022-09-01T07:30:29;20.02;;;6.60;;
74415;SDS011;62850;42.428;25.618;2022-09-01T07:32:56;11.65;;;6.03;;
74415;SDS011;62850;42.428;25.618;2022-09-01T07:35:22;20.55;;;6.88;;
74415;SDS011;62850;42.428;25.618;2022-09-01T07:37:48;16.13;;;6.72;;
74415;SDS011;62850;42.428;25.618;2022-09-01T07:40:16;16.23;;;6.50;;
74415;SDS011;62850;42.428;25.618;2022-09-01T07:42:47;16.95;;;6.90;;
74415;SDS011;62850;42.428;25.618;2022-09-01T07:45:14;14.55;;;5.78;;
74415;SDS011;62850;42.428;25.618;2022-09-01T07:47:41;16.27;;;6.68;;
74415;SDS011;62850;42.428;25.618;2022-09-01T07:50:09;20.80;;;6.25;;
74415;SDS011;62850;42.428;25.618;2022-09-01T07:52:39;21.95;;;7.50;;
74415;SDS011;62850;42.428;25.618;2022-09-01T07:55:14;17.67;;;7.40;;
74415;SDS011;62850;42.428;25.618;2022-09-01T07:57:41;20.00;;;8.05;;
74415;SDS011;62850;42.428;25.618;2022-09-01T08:00:10;15.65;;;6.88;;
74415;SDS011;62850;42.428;25.618;2022-09-01T08:02:40;16.08;;;6.43;;
74415;SDS011;62850;42.428;25.618;2022-09-01T08:05:13;17.70;;;6.22;;
74415;SDS011;62850;42.428;25.618;2022-09-01T08:07:42;18.17;;;6.80;;
74415;SDS011;62850;42.428;25.618;2022-09-01T08:10:07;15.77;;;6.30;;
74415;SDS011;62850;42.428;25.618;2022-09-01T08:12:33;16.10;;;6.30;;
74415;SDS011;62850;42.428;25.618;2022-09-01T08:15:04;12.25;;;6.38;;
74415;SDS011;62850;42.428;25.618;2022-09-01T08:17:31;13.25;;;6.20;;
74415;SDS011;62850;42.428;25.618;2022-09-01T08:19:57;14.73;;;5.22;;
74415;SDS011;62850;42.428;25.618;2022-09-01T08:22:22;13.23;;;5.40;;
74415;SDS011;62850;42.428;25.618;2022-09-01T08:24:50;15.07;;;5.90;;
74415;SDS011;62850;42.428;25.618;2022-09-01T08:27:16;11.50;;;4.63;;
74415;SDS011;62850;42.428;25.618;2022-09-01T08:29:42;13.13;;;5.05;;
74415;SDS011;62850;42.428;25.618;2022-09-01T08:32:08;11.00;;;5.38;;
74415;SDS011;62850;42.428;25.618;2022-09-01T08:34:35;12.55;;;5.05;;
74415;SDS011;62850;42.428;25.618;2022-09-01T08:37:01;11.88;;;4.45;;
74415;SDS011;62850;42.428;25.618;2022-09-01T08:39:28;15.02;;;5.65;;
74415;SDS011;62850;42.428;25.618;2022-09-01T08:47:19;13.05;;;4.65;;
74415;SDS011;62850;42.428;25.618;2022-09-01T08:49:45;10.32;;;4.75;;
74415;SDS011;62850;42.428;25.618;2022-09-01T08:58:02;13.48;;;5.47;;
74415;SDS011;62850;42.428;25.618;2022-09-01T09:00:30;10.90;;;5.05;;
74415;SDS011;62850;42.428;25.618;2022-09-01T09:06:12;13.45;;;6.82;;
74415;SDS011;62850;42.428;25.618;2022-09-01T09:22:11;9.35;;;4.40;;
74415;SDS011;62850;42.428;25.618;2022-09-01T09:27:20;11.25;;;5.30;;
74415;SDS011;62850;42.428;25.618;2022-09-01T09:29:52;13.90;;;4.47;;
74415;SDS011;62850;42.428;25.618;2022-09-01T09:32:19;16.25;;;4.97;;
74415;SDS011;62850;42.428;25.618;2022-09-01T09:34:47;11.15;;;4.53;;
74415;SDS011;62850;42.428;25.618;2022-09-01T09:40:06;10.57;;;4.35;;
74415;SDS011;62850;42.428;25.618;2022-09-01T09:42:35;13.27;;;4.00;;
74415;SDS011;62850;42.428;25.618;2022-09-01T09:45:04;13.43;;;5.07;;
74415;SDS011;62850;42.428;25.618;2022-09-01T09:47:52;12.77;;;4.60;;
74415;SDS011;62850;42.428;25.618;2022-09-01T09:50:21;12.23;;;5.00;;
74415;SDS011;62850;42.428;25.618;2022-09-01T09:52:48;14.10;;;4.15;;
74415;SDS011;62850;42.428;25.618;2022-09-01T09:55:20;16.55;;;4.70;;
74415;SDS011;62850;42.428;25.618;2022-09-01T09:57:49;10.45;;;4.45;;
74415;SDS011;62850;42.428;25.618;2022-09-01T10:00:31;11.50;;;4.50;;
74415;SDS011;62850;42.428;25.618;2022-09-01T10:03:05;7.43;;;3.75;;
74415;SDS011;62850;42.428;25.618;2022-09-01T10:10:53;15.02;;;4.00;;
74415;SDS011;62850;42.428;25.618;2022-09-01T10:13:20;10.18;;;3.83;;
74415;SDS011;62850;42.428;25.618;2022-09-01T10:15:53;9.73;;;4.07;;
74415;SDS011;62850;42.428;25.618;2022-09-01T10:18:57;16.45;;;4.65;;
74415;SDS011;62850;42.428;25.618;2022-09-01T10:21:21;12.65;;;6.15;;
74415;SDS011;62850;42.428;25.618;2022-09-01T10:23:50;13.00;;;4.45;;
74415;SDS011;62850;42.428;25.618;2022-09-01T10:26:23;11.02;;;4.53;;
74415;SDS011;62850;42.428;25.618;2022-09-01T10:29:07;14.32;;;4.50;;
74415;SDS011;62850;42.428;25.618;2022-09-01T10:31:38;12.82;;;4.90;;
74415;SDS011;62850;42.428;25.618;2022-09-01T10:34:05;11.95;;;4.22;;
74415;SDS011;62850;42.428;25.618;2022-09-01T10:36:35;11.93;;;4.28;;
74415;SDS011;62850;42.428;25.618;2022-09-01T10:39:02;13.38;;;4.20;;
74415;SDS011;62850;42.428;25.618;2022-09-01T10:41:45;10.55;;;4.70;;
74415;SDS011;62850;42.428;25.618;2022-09-01T10:47:08;9.48;;;3.83;;
74415;SDS011;62850;42.428;25.618;2022-09-01T10:52:02;9.23;;;4.13;;
74415;SDS011;62850;42.428;25.618;2022-09-01T10:57:20;13.15;;;4.50;;
74415;SDS011;62850;42.428;25.618;2022-09-01T11:00:04;10.70;;;4.30;;
74415;SDS011;62850;42.428;25.618;2022-09-01T11:08:56;12.88;;;4.75;;
74415;SDS011;62850;42.428;25.618;2022-09-01T11:12:37;14.10;;;5.05;;
74415;SDS011;62850;42.428;25.618;2022-09-01T11:14:31;13.93;;;4.20;;
74415;SDS011;62850;42.428;25.618;2022-09-01T11:22:58;13.60;;;5.10;;
74415;SDS011;62850;42.428;25.618;2022-09-01T11:28:01;8.98;;;3.97;;
74415;SDS011;62850;42.428;25.618;2022-09-01T11:30:48;9.40;;;4.63;;
74415;SDS011;62850;42.428;25.618;2022-09-01T11:33:42;12.00;;;4.25;;
74415;SDS011;62850;42.428;25.618;2022-09-01T11:38:53;10.93;;;4.05;;
74415;SDS011;62850;42.428;25.618;2022-09-01T11:44:10;10.80;;;4.72;;
74415;SDS011;62850;42.428;25.618;2022-09-01T11:46:48;11.43;;;4.20;;
74415;SDS011;62850;42.428;25.618;2022-09-01T11:49:27;10.25;;;4.20;;
74415;SDS011;62850;42.428;25.618;2022-09-01T11:52:01;7.28;;;3.65;;
74415;SDS011;62850;42.428;25.618;2022-09-01T11:54:29;8.73;;;3.60;;
74415;SDS011;62850;42.428;25.618;2022-09-01T11:57:22;9.88;;;4.30;;
74415;SDS011;62850;42.428;25.618;2022-09-01T11:59:52;9.73;;;4.60;;
74415;SDS011;62850;42.428;25.618;2022-09-01T12:02:26;8.55;;;4.28;;
74415;SDS011;62850;42.428;25.618;2022-09-01T12:04:57;7.63;;;3.92;;
74415;SDS011;62850;42.428;25.618;2022-09-01T12:07:41;14.63;;;4.82;;
74415;SDS011;62850;42.428;25.618;2022-09-01T12:10:33;11.52;;;4.03;;
74415;SDS011;62850;42.428;25.618;2022-09-01T12:13:03;10.50;;;4.20;;
74415;SDS011;62850;42.428;25.618;2022-09-01T12:15:34;10.20;;;4.60;;
74415;SDS011;62850;42.428;25.618;2022-09-01T12:18:09;9.32;;;4.80;;
74415;SDS011;62850;42.428;25.618;2022-09-01T12:20:38;11.20;;;4.53;;
74415;SDS011;62850;42.428;25.618;2022-09-01T12:23:14;9.93;;;4.63;;
74415;SDS011;62850;42.428;25.618;2022-09-01T12:25:49;9.05;;;4.25;;
74415;SDS011;62850;42.428;25.618;2022-09-01T12:28:15;10.70;;;4.18;;
74415;SDS011;62850;42.428;25.618;2022-09-01T12:30:41;6.95;;;3.92;;
74415;SDS011;62850;42.428;25.618;2022-09-01T12:33:09;8.43;;;4.03;;
74415;SDS011;62850;42.428;25.618;2022-09-01T12:35:38;9.77;;;4.63;;
74415;SDS011;62850;42.428;25.618;2022-09-01T12:40:48;11.82;;;4.90;;
74415;SDS011;62850;42.428;25.618;2022-09-01T12:46:02;11.13;;;5.07;;
74415;SDS011;62850;42.428;25.618;2022-09-01T12:48:37;10.40;;;5.28;;
74415;SDS011;62850;42.428;25.618;2022-09-01T12:51:18;10.70;;;4.90;;
74415;SDS011;62850;42.428;25.618;2022-09-01T12:56:18;9.85;;;5.18;;
74415;SDS011;62850;42.428;25.618;2022-09-01T12:59:05;11.27;;;4.65;;
74415;SDS011;62850;42.428;25.618;2022-09-01T13:01:48;11.70;;;5.07;;
74415;SDS011;62850;42.428;25.618;2022-09-01T13:06:46;10.45;;;4.53;;
74415;SDS011;62850;42.428;25.618;2022-09-01T13:09:12;10.90;;;4.50;;
74415;SDS011;62850;42.428;25.618;2022-09-01T13:11:37;12.55;;;4.43;;
74415;SDS011;62850;42.428;25.618;2022-09-01T13:14:04;9.43;;;4.40;;
74415;SDS011;62850;42.428;25.618;2022-09-01T13:16:29;13.70;;;4.10;;
74415;SDS011;62850;42.428;25.618;2022-09-01T13:18:55;9.18;;;4.15;;
74415;SDS011;62850;42.428;25.618;2022-09-01T13:21:20;14.40;;;5.35;;
74415;SDS011;62850;42.428;25.618;2022-09-01T13:23:46;12.43;;;4.90;;
74415;SDS011;62850;42.428;25.618;2022-09-01T13:26:14;10.52;;;4.85;;
74415;SDS011;62850;42.428;25.618;2022-09-01T13:28:40;9.88;;;4.32;;
74415;SDS011;62850;42.428;25.618;2022-09-01T13:31:05;10.57;;;4.82;;
74415;SDS011;62850;42.428;25.618;2022-09-01T13:33:34;10.02;;;5.10;;
74415;SDS011;62850;42.428;25.618;2022-09-01T13:36:01;11.70;;;5.40;;
74415;SDS011;62850;42.428;25.618;2022-09-01T13:38:28;9.70;;;4.70;;
74415;SDS011;62850;42.428;25.618;2022-09-01T13:40:55;7.97;;;4.25;;
74415;SDS011;62850;42.428;25.618;2022-09-01T13:43:21;7.43;;;4.03;;
74415;SDS011;62850;42.428;25.618;2022-09-01T13:45:51;9.70;;;4.60;;
74415;SDS011;62850;42.428;25.618;2022-09-01T13:48:17;10.48;;;4.80;;
74415;SDS011;62850;42.428;25.618;2022-09-01T13:50:44;10.80;;;4.97;;
74415;SDS011;62850;42.428;25.618;2022-09-01T13:53:13;11.57;;;4.78;;
74415;SDS011;62850;42.428;25.618;2022-09-01T13:55:40;8.00;;;4.55;;
74415;SDS011;62850;42.428;25.618;2022-09-01T13:58:06;12.43;;;4.80;;
74415;SDS011;62850;42.428;25.618;2022-09-01T14:00:33;9.65;;;4.50;;
74415;SDS011;62850;42.428;25.618;2022-09-01T14:03:09;10.68;;;4.55;;
74415;SDS011;62850;42.428;25.618;2022-09-01T14:05:40;9.10;;;4.40;;
74415;SDS011;62850;42.428;25.618;2022-09-01T14:08:08;12.13;;;4.78;;
74415;SDS011;62850;42.428;25.618;2022-09-01T14:10:39;8.88;;;4.95;;
74415;SDS011;62850;42.428;25.618;2022-09-01T14:13:07;8.27;;;4.47;;
74415;SDS011;62850;42.428;25.618;2022-09-01T14:15:33;9.68;;;4.50;;
74415;SDS011;62850;42.428;25.618;2022-09-01T14:17:59;7.05;;;4.25;;
74415;SDS011;62850;42.428;25.618;2022-09-01T14:20:27;11.63;;;4.65;;
74415;SDS011;62850;42.428;25.618;2022-09-01T14:23:00;10.30;;;4.60;;
74415;SDS011;62850;42.428;25.618;2022-09-01T14:25:26;14.05;;;4.55;;
74415;SDS011;62850;42.428;25.618;2022-09-01T14:27:52;12.05;;;4.22;;
74415;SDS011;62850;42.428;25.618;2022-09-01T14:30:19;10.52;;;4.25;;
74415;SDS011;62850;42.428;25.618;2022-09-01T14:32:48;8.73;;;4.60;;
74415;SDS011;62850;42.428;25.618;2022-09-01T14:35:15;12.05;;;4.88;;
74415;SDS011;62850;42.428;25.618;2022-09-01T14:37:41;11.40;;;4.80;;
74415;SDS011;62850;42.428;25.618;2022-09-01T14:40:10;10.75;;;4.25;;
74415;SDS011;62850;42.428;25.618;2022-09-01T14:42:39;11.63;;;4.18;;
74415;SDS011;62850;42.428;25.618;2022-09-01T14:45:08;10.73;;;4.30;;
74415;SDS011;62850;42.428;25.618;2022-09-01T14:47:36;9.45;;;4.15;;
74415;SDS011;62850;42.428;25.618;2022-09-01T14:50:03;14.20;;;4.57;;
74415;SDS011;62850;42.428;25.618;2022-09-01T14:52:29;8.43;;;4.40;;
74415;SDS011;62850;42.428;25.618;2022-09-01T14:54:54;8.57;;;4.72;;
74415;SDS011;62850;42.428;25.618;2022-09-01T14:57:21;12.52;;;4.68;;
74415;SDS011;62850;42.428;25.618;2022-09-01T14:59:47;7.95;;;4.00;;
74415;SDS011;62850;42.428;25.618;2022-09-01T15:02:13;8.52;;;4.75;;
74415;SDS011;62850;42.428;25.618;2022-09-01T15:04:38;8.77;;;4.10;;
74415;SDS011;62850;42.428;25.618;2022-09-01T15:07:04;10.57;;;4.60;;
74415;SDS011;62850;42.428;25.618;2022-09-01T15:09:30;9.38;;;4.63;;
74415;SDS011;62850;42.428;25.618;2022-09-01T15:11:56;10.50;;;4.65;;
74415;SDS011;62850;42.428;25.618;2022-09-01T15:14:22;7.88;;;4.38;;
74415;SDS011;62850;42.428;25.618;2022-09-01T15:16:47;8.18;;;4.97;;
74415;SDS011;62850;42.428;25.618;2022-09-01T15:19:13;9.35;;;4.20;;
74415;SDS011;62850;42.428;25.618;2022-09-01T15:21:40;10.15;;;4.18;;
74415;SDS011;62850;42.428;25.618;2022-09-01T15:24:07;9.90;;;3.88;;
74415;SDS011;62850;42.428;25.618;2022-09-01T15:26:34;10.55;;;4.40;;
74415;SDS011;62850;42.428;25.618;2022-09-01T15:29:01;10.50;;;4.40;;
74415;SDS011;62850;42.428;25.618;2022-09-01T15:31:27;11.68;;;4.80;;
74415;SDS011;62850;42.428;25.618;2022-09-01T15:33:56;9.07;;;4.32;;
74415;SDS011;62850;42.428;25.618;2022-09-01T15:36:24;8.15;;;4.07;;
74415;SDS011;62850;42.428;25.618;2022-09-01T15:38:52;14.52;;;4.57;;
74415;SDS011;62850;42.428;25.618;2022-09-01T15:41:19;10.45;;;4.68;;
74415;SDS011;62850;42.428;25.618;2022-09-01T15:43:46;12.20;;;4.97;;
74415;SDS011;62850;42.428;25.618;2022-09-01T15:46:12;10.45;;;4.43;;
74415;SDS011;62850;42.428;25.618;2022-09-01T15:48:39;9.40;;;4.35;;
74415;SDS011;62850;42.428;25.618;2022-09-01T15:53:54;10.27;;;5.00;;
74415;SDS011;62850;42.428;25.618;2022-09-01T15:56:22;15.13;;;4.80;;
74415;SDS011;62850;42.428;25.618;2022-09-01T15:58:48;11.48;;;4.65;;
74415;SDS011;62850;42.428;25.618;2022-09-01T16:01:14;10.85;;;4.82;;
74415;SDS011;62850;42.428;25.618;2022-09-01T16:03:42;13.45;;;4.75;;